createdAt,value
2019-03-20T00:00:47.904Z,45.83
2019-03-20T00:03:21.333Z,44.18
2019-03-20T00:05:51.415Z,42.17
2019-03-20T00:08:21.556Z,43.92
2019-03-20T00:10:50.597Z,45.83
2019-03-20T00:13:19.587Z,41.70
2019-03-20T00:15:54.230Z,43.17
2019-03-20T00:18:23.216Z,42.55
2019-03-20T00:20:52.947Z,40.67
2019-03-20T00:23:25.351Z,43.60
2019-03-20T00:25:54.563Z,43.48
2019-03-20T00:28:23.542Z,38.80
2019-03-20T00:30:55.487Z,41.37
2019-03-20T00:33:24.485Z,41.85
2019-03-20T00:35:53.456Z,41.68
2019-03-20T00:38:22.489Z,37.55
2019-03-20T00:40:51.638Z,38.73
2019-03-20T00:43:27.334Z,41.68
2019-03-20T00:45:56.314Z,35.70
2019-03-20T00:48:30.162Z,40.03
2019-03-20T00:51:00.032Z,37.60
2019-03-20T00:53:29.052Z,38.13
2019-03-20T00:55:58.065Z,38.70
2019-03-20T00:58:27.098Z,34.67
2019-03-20T01:00:56.095Z,37.95
2019-03-20T01:03:25.097Z,32.20
2019-03-20T01:05:55.996Z,35.78
2019-03-20T01:08:24.944Z,36.77
2019-03-20T01:10:54.104Z,35.63
2019-03-20T01:13:23.437Z,36.13
2019-03-20T01:15:54.052Z,35.43
2019-03-20T01:18:24.280Z,32.13
2019-03-20T01:21:04.650Z,31.00
2019-03-20T01:23:37.202Z,35.90
2019-03-20T01:26:06.202Z,35.28
2019-03-20T01:28:36.824Z,34.70
2019-03-20T01:31:05.798Z,29.95
2019-03-20T01:33:34.755Z,33.42
2019-03-20T01:36:03.813Z,34.63
2019-03-20T01:38:36.352Z,34.15
2019-03-20T01:41:05.352Z,34.60
2019-03-20T01:43:34.362Z,33.35
2019-03-20T01:46:05.533Z,32.63
2019-03-20T01:48:34.556Z,32.33
2019-03-20T01:51:25.328Z,34.20
2019-03-20T01:53:54.358Z,29.32
2019-03-20T01:56:23.339Z,37.00
2019-03-20T01:58:56.992Z,35.70
2019-03-20T02:01:28.428Z,36.48
2019-03-20T02:03:58.994Z,34.50
2019-03-20T02:06:31.060Z,30.80
2019-03-20T02:09:00.057Z,31.85
2019-03-20T02:11:31.782Z,34.92
2019-03-20T02:14:02.109Z,31.52
2019-03-20T02:16:35.399Z,33.25
2019-03-20T02:19:06.527Z,32.10
2019-03-20T02:21:40.130Z,37.63
2019-03-20T02:24:12.381Z,33.80
2019-03-20T02:26:43.306Z,34.73
2019-03-20T02:29:13.099Z,36.70
2019-03-20T02:34:10.510Z,35.50
2019-03-20T02:36:41.005Z,37.17
2019-03-20T02:39:13.646Z,38.70
2019-03-20T02:41:45.317Z,35.98
2019-03-20T02:44:15.623Z,38.02
2019-03-20T02:46:44.657Z,37.93
2019-03-20T02:49:16.613Z,41.45
2019-03-20T02:51:48.815Z,43.10
2019-03-20T02:54:17.849Z,45.03
2019-03-20T02:56:46.889Z,42.70
2019-03-20T02:59:15.911Z,43.27
2019-03-20T03:01:44.936Z,41.40
2019-03-20T03:04:16.192Z,44.25
2019-03-20T03:06:48.039Z,42.33
2019-03-20T03:09:17.077Z,46.80
2019-03-20T03:11:46.664Z,44.33
2019-03-20T03:14:15.869Z,50.20
2019-03-20T03:16:44.815Z,47.10
2019-03-20T03:19:13.929Z,48.83
2019-03-20T03:21:43.382Z,48.23
2019-03-20T03:24:18.592Z,49.93
2019-03-20T03:26:47.565Z,49.65
2019-03-20T03:29:16.574Z,47.03
2019-03-20T03:31:45.543Z,50.35
2019-03-20T03:34:16.177Z,48.55
2019-03-20T03:36:45.184Z,51.90
2019-03-20T03:39:14.145Z,50.33
2019-03-20T03:41:43.191Z,49.65
2019-03-20T03:44:13.377Z,50.10
2019-03-20T03:46:44.020Z,50.40
2019-03-20T03:49:14.531Z,53.95
2019-03-20T03:51:48.512Z,56.42
2019-03-20T03:54:22.071Z,54.18
2019-03-20T03:56:52.072Z,53.10
2019-03-20T04:01:50.231Z,58.08
2019-03-20T04:04:22.686Z,57.27
2019-03-20T04:06:56.979Z,50.33
2019-03-20T04:09:25.951Z,56.65
2019-03-20T04:11:54.917Z,57.83
2019-03-20T04:14:23.964Z,60.40
2019-03-20T04:16:55.889Z,62.08
2019-03-20T04:19:26.504Z,59.70
2019-03-20T04:21:57.092Z,63.68
2019-03-20T04:24:28.412Z,61.08
2019-03-20T04:26:57.386Z,62.75
2019-03-20T04:29:27.625Z,61.13
2019-03-20T04:31:57.619Z,63.08
2019-03-20T04:36:55.018Z,69.95
2019-03-20T04:39:24.029Z,66.37
2019-03-20T04:41:53.614Z,68.30
2019-03-20T04:44:25.690Z,71.20
2019-03-20T04:46:54.700Z,68.43
2019-03-20T04:49:23.689Z,73.40
2019-03-20T04:51:52.721Z,70.85
2019-03-20T04:54:21.753Z,72.47
2019-03-20T04:57:02.306Z,75.25
2019-03-20T04:59:31.316Z,76.30
2019-03-20T05:02:00.842Z,73.33
2019-03-20T05:04:32.690Z,69.30
2019-03-20T05:07:01.721Z,75.28
2019-03-20T05:09:30.754Z,75.57
2019-03-20T05:11:59.776Z,75.70
2019-03-20T05:14:28.809Z,82.75
2019-03-20T05:17:00.166Z,76.15
2019-03-20T05:19:29.195Z,73.92
2019-03-20T05:21:59.861Z,74.42
2019-03-20T05:24:30.908Z,76.95
2019-03-20T05:26:59.971Z,76.57
2019-03-20T05:29:28.990Z,72.27
2019-03-20T05:32:07.267Z,74.70
2019-03-20T05:34:37.166Z,74.00
2019-03-20T05:37:10.567Z,74.42
2019-03-20T05:39:36.870Z,75.22
2019-03-20T05:42:06.010Z,76.47
2019-03-20T05:44:34.954Z,72.00
2019-03-20T05:47:03.930Z,74.30
2019-03-20T05:49:32.973Z,74.27
2019-03-20T05:52:02.016Z,78.85
2019-03-20T05:54:32.627Z,76.10
2019-03-20T05:57:01.642Z,67.00
2019-03-20T05:59:31.806Z,75.05
2019-03-20T06:02:00.770Z,72.85
2019-03-20T06:04:29.877Z,67.27
2019-03-20T06:06:58.844Z,73.00
2019-03-20T06:09:27.836Z,69.67
2019-03-20T06:11:59.805Z,66.67
2019-03-20T06:14:28.924Z,74.32
2019-03-20T06:16:57.858Z,77.57
2019-03-20T06:19:27.046Z,74.80
2019-03-20T06:21:56.053Z,80.07
2019-03-20T06:24:27.875Z,74.97
2019-03-20T06:26:57.267Z,76.95
2019-03-20T06:29:26.433Z,77.82
2019-03-20T06:31:55.466Z,81.53
2019-03-20T06:34:24.452Z,75.92
2019-03-20T06:36:57.238Z,80.47
2019-03-20T06:39:26.389Z,77.12
2019-03-20T06:41:55.337Z,80.17
2019-03-20T06:44:24.405Z,79.85
2019-03-20T06:46:59.426Z,81.32
2019-03-20T06:49:28.515Z,77.75
2019-03-20T06:51:57.480Z,81.00
2019-03-20T06:54:26.445Z,75.05
2019-03-20T06:56:55.780Z,82.27
2019-03-20T06:59:31.653Z,88.65
2019-03-20T07:02:01.917Z,88.42
2019-03-20T07:08:00.196Z,84.05
2019-03-20T07:10:30.755Z,88.55
2019-03-20T07:12:59.745Z,81.40
2019-03-20T07:15:28.780Z,81.57
2019-03-20T07:18:00.915Z,82.57
2019-03-20T07:20:29.867Z,76.77
2019-03-20T07:22:58.837Z,78.67
2019-03-20T07:25:27.811Z,81.02
2019-03-20T07:27:57.465Z,78.90
2019-03-20T07:30:27.711Z,78.90
2019-03-20T07:32:58.484Z,78.80
2019-03-20T07:35:28.809Z,76.27
2019-03-20T07:37:59.551Z,76.17
2019-03-20T07:40:29.579Z,76.37
2019-03-20T07:45:28.309Z,73.65
2019-03-20T07:47:57.291Z,68.83
2019-03-20T07:50:26.312Z,71.90
2019-03-20T07:52:59.432Z,71.40
2019-03-20T07:55:28.805Z,75.17
2019-03-20T07:57:59.385Z,64.90
2019-03-20T08:00:31.461Z,63.98
2019-03-20T08:03:03.507Z,66.40
2019-03-20T08:05:32.487Z,64.58
2019-03-20T08:08:07.123Z,62.00
2019-03-20T08:10:36.835Z,60.25
2019-03-20T08:13:07.899Z,57.83
2019-03-20T08:15:38.447Z,57.88
2019-03-20T08:18:15.472Z,63.83
2019-03-20T08:20:39.797Z,58.35
2019-03-20T08:23:08.781Z,67.82
2019-03-20T08:25:40.803Z,63.10
2019-03-20T08:28:10.236Z,66.67
2019-03-20T08:30:40.869Z,61.83
2019-03-20T08:33:09.958Z,62.55
2019-03-20T08:35:41.452Z,57.75
2019-03-20T08:38:18.203Z,61.05
2019-03-20T08:40:41.076Z,62.15
2019-03-20T08:43:10.063Z,58.38
2019-03-20T08:45:39.029Z,64.97
2019-03-20T08:48:08.001Z,59.23
2019-03-20T08:50:36.982Z,63.58
2019-03-20T08:53:06.601Z,63.38
2019-03-20T08:55:39.344Z,54.08
2019-03-20T08:58:08.510Z,57.85
2019-03-20T09:00:42.590Z,63.05
2019-03-20T09:03:11.720Z,55.10
2019-03-20T09:05:40.713Z,53.23
2019-03-20T09:08:09.726Z,57.00
2019-03-20T09:10:59.550Z,58.23
2019-03-20T09:13:28.597Z,51.83
2019-03-20T09:15:58.418Z,56.53
2019-03-20T09:18:27.438Z,51.15
2019-03-20T09:20:58.374Z,50.10
2019-03-20T09:23:28.958Z,50.30
2019-03-20T09:26:03.348Z,51.18
2019-03-20T09:28:51.667Z,46.10
2019-03-20T09:31:20.638Z,52.43
2019-03-20T09:33:51.813Z,48.75
2019-03-20T09:36:21.401Z,53.52
2019-03-20T09:38:52.334Z,44.63
2019-03-20T09:41:28.293Z,47.75
2019-03-20T09:44:01.787Z,45.17
2019-03-20T09:46:30.825Z,50.15
2019-03-20T09:48:59.829Z,54.17
2019-03-20T09:51:30.067Z,44.67
2019-03-20T09:53:59.060Z,51.53
2019-03-20T09:56:32.345Z,52.30
2019-03-20T09:59:03.090Z,51.95
2019-03-20T10:01:32.217Z,50.20
2019-03-20T10:04:01.265Z,55.20
2019-03-20T10:06:35.423Z,55.63
2019-03-20T10:09:10.830Z,57.50
2019-03-20T10:11:39.835Z,52.53
2019-03-20T10:14:09.004Z,59.50
2019-03-20T10:16:40.310Z,56.85
2019-03-20T10:19:09.327Z,62.93
2019-03-20T10:21:38.319Z,64.35
2019-03-20T10:24:07.369Z,56.20
2019-03-20T10:26:38.767Z,59.43
2019-03-20T10:29:07.734Z,63.80
2019-03-20T10:31:36.785Z,59.05
2019-03-20T10:34:05.747Z,57.15
2019-03-20T10:36:34.713Z,57.30
2019-03-20T10:41:42.743Z,58.23
2019-03-20T10:44:14.623Z,54.35
2019-03-20T10:46:43.671Z,57.33
2019-03-20T10:49:12.694Z,62.37
2019-03-20T10:51:43.037Z,56.87
2019-03-20T10:54:12.059Z,60.20
2019-03-20T10:59:11.885Z,55.80
2019-03-20T11:01:42.783Z,58.53
2019-03-20T11:04:15.135Z,58.05
2019-03-20T11:06:48.404Z,56.90
2019-03-20T11:09:21.487Z,66.02
2019-03-20T11:11:50.462Z,65.42
2019-03-20T11:14:24.941Z,54.85
2019-03-20T11:16:54.366Z,65.78
2019-03-20T11:19:26.910Z,56.28
2019-03-20T11:21:56.042Z,50.55
2019-03-20T11:24:30.494Z,52.35
2019-03-20T11:27:02.061Z,51.80
2019-03-20T11:29:31.014Z,49.50
2019-03-20T11:32:09.110Z,52.67
2019-03-20T11:34:38.081Z,51.60
2019-03-20T11:37:07.190Z,46.08
2019-03-20T11:39:36.126Z,51.13
2019-03-20T11:42:06.902Z,41.25
2019-03-20T11:44:37.462Z,44.90
2019-03-20T11:47:09.330Z,41.95
2019-03-20T11:49:42.284Z,42.65
2019-03-20T11:52:13.432Z,38.10
2019-03-20T11:54:43.927Z,37.60
2019-03-20T11:57:21.650Z,38.42
2019-03-20T11:59:50.773Z,36.03
2019-03-20T12:02:27.942Z,39.63
2019-03-20T12:04:50.821Z,40.17
2019-03-20T12:07:19.843Z,42.40
2019-03-20T12:09:58.975Z,41.60
2019-03-20T12:12:36.765Z,31.73
2019-03-20T12:15:05.949Z,39.70
2019-03-20T12:17:34.981Z,37.42
2019-03-20T12:20:05.500Z,33.25
2019-03-20T12:22:38.873Z,32.63
2019-03-20T12:25:09.491Z,32.20
2019-03-20T12:30:34.953Z,31.25
2019-03-20T12:33:04.585Z,30.95
2019-03-20T12:35:58.955Z,34.40
2019-03-20T12:38:27.943Z,25.55
2019-03-20T12:40:57.087Z,25.43
2019-03-20T12:43:26.057Z,28.25
2019-03-20T12:45:55.019Z,27.00
2019-03-20T12:55:15.356Z,29.45
2019-03-20T12:57:44.335Z,25.57
2019-03-20T13:00:17.344Z,29.50
2019-03-20T13:02:46.424Z,29.27
2019-03-20T13:05:15.927Z,31.07
2019-03-20T13:07:45.177Z,32.55
2019-03-20T13:10:20.522Z,28.92
2019-03-20T13:12:49.668Z,27.85
2019-03-20T13:15:26.640Z,26.33
2019-03-20T13:17:56.270Z,27.30
2019-03-20T13:20:28.024Z,21.65
2019-03-20T13:23:01.286Z,26.45
2019-03-20T13:25:32.255Z,24.43
2019-03-20T13:28:01.460Z,23.02
2019-03-20T13:30:40.830Z,22.80
2019-03-20T13:33:09.887Z,22.40
2019-03-20T13:35:40.475Z,24.70
2019-03-20T13:38:09.475Z,25.05
2019-03-20T13:40:43.118Z,22.67
2019-03-20T13:43:12.082Z,22.02
2019-03-20T13:45:47.882Z,26.30
2019-03-20T13:48:18.570Z,26.23
2019-03-20T13:50:47.658Z,19.98
2019-03-20T13:53:16.607Z,24.53
2019-03-20T13:55:45.594Z,21.27
2019-03-20T13:58:16.626Z,27.90
2019-03-20T14:00:45.630Z,25.68
2019-03-20T14:03:16.347Z,25.20
2019-03-20T14:05:45.546Z,18.25
2019-03-20T14:08:14.497Z,23.52
2019-03-20T14:10:50.260Z,17.47
2019-03-20T14:13:14.138Z,21.00
2019-03-20T14:15:43.102Z,20.80
2019-03-20T14:18:12.035Z,25.87
2019-03-20T14:20:42.590Z,24.07
2019-03-20T14:23:13.195Z,22.32
2019-03-20T14:25:42.220Z,18.95
2019-03-20T14:28:11.235Z,23.67
2019-03-20T14:30:40.162Z,16.37
2019-03-20T14:33:11.193Z,19.93
2019-03-20T14:35:40.239Z,15.40
2019-03-20T14:38:11.275Z,21.20
2019-03-20T14:40:42.373Z,15.88
2019-03-20T14:43:11.368Z,19.07
2019-03-20T14:45:43.385Z,23.77
2019-03-20T14:48:12.374Z,22.25
2019-03-20T14:50:41.308Z,19.97
2019-03-20T14:53:11.893Z,21.33
2019-03-20T14:55:40.869Z,25.70
2019-03-20T14:58:09.801Z,24.03
2019-03-20T15:00:38.783Z,17.92
2019-03-20T15:03:13.835Z,19.83
2019-03-20T15:05:42.893Z,20.32
2019-03-20T15:08:14.927Z,25.27
2019-03-20T15:10:46.130Z,22.47
2019-03-20T15:13:20.471Z,25.45
2019-03-20T15:15:56.863Z,24.57
2019-03-20T15:18:25.812Z,20.72
2019-03-20T15:20:58.748Z,20.48
2019-03-20T15:23:30.172Z,22.17
2019-03-20T15:25:58.769Z,16.37
2019-03-20T15:28:27.733Z,15.45
2019-03-20T15:30:58.342Z,18.25
2019-03-20T15:33:27.311Z,18.75
2019-03-20T15:36:00.703Z,16.52
2019-03-20T15:38:29.645Z,17.80
2019-03-20T15:41:02.457Z,12.93
2019-03-20T15:43:34.477Z,15.58
2019-03-20T15:46:06.574Z,12.63
2019-03-20T15:48:35.883Z,14.20
2019-03-20T15:51:10.296Z,15.10
2019-03-20T15:53:42.683Z,16.77
2019-03-20T15:56:14.743Z,17.40
2019-03-20T15:58:43.824Z,17.37
2019-03-20T16:01:14.041Z,18.02
2019-03-20T16:03:46.835Z,18.62
2019-03-20T16:06:18.607Z,21.20
2019-03-20T16:08:50.846Z,17.52
2019-03-20T16:11:23.805Z,22.42
2019-03-20T16:13:52.768Z,19.70
2019-03-20T16:16:28.576Z,22.58
2019-03-20T16:18:56.046Z,16.87
2019-03-20T16:21:25.098Z,17.23
2019-03-20T16:23:57.102Z,18.20
2019-03-20T16:26:27.032Z,15.68
2019-03-20T16:28:56.230Z,17.15
2019-03-20T16:31:28.306Z,18.57
2019-03-20T16:33:57.310Z,18.70
2019-03-20T16:36:33.462Z,17.25
2019-03-20T16:39:02.543Z,18.37
2019-03-20T16:41:34.447Z,15.50
2019-03-20T16:44:06.976Z,17.65
2019-03-20T16:49:05.582Z,12.82
2019-03-20T16:51:34.550Z,14.98
2019-03-20T16:54:05.619Z,16.67
2019-03-20T16:56:34.664Z,12.73
2019-03-20T16:59:06.255Z,11.78
2019-03-20T17:01:39.007Z,10.65
2019-03-20T17:04:07.956Z,13.68
2019-03-20T17:06:36.928Z,14.55
2019-03-20T17:09:14.825Z,15.32
2019-03-20T17:11:43.852Z,18.62
2019-03-20T17:14:12.804Z,15.23
2019-03-20T17:19:15.103Z,16.70
2019-03-20T17:21:45.908Z,18.02
2019-03-20T17:24:19.149Z,14.27
2019-03-20T17:26:53.945Z,17.35
2019-03-20T17:29:24.791Z,14.45
2019-03-20T17:31:54.108Z,12.05
2019-03-20T17:34:23.145Z,12.65
2019-03-20T17:36:52.173Z,13.28
2019-03-20T17:39:21.112Z,15.33
2019-03-20T17:41:51.691Z,13.58
2019-03-20T17:44:20.941Z,14.67
2019-03-20T17:46:50.256Z,14.30
2019-03-20T17:49:19.219Z,15.20
2019-03-20T17:51:50.222Z,19.07
2019-03-20T17:54:22.553Z,17.05
2019-03-20T17:56:57.606Z,14.38
2019-03-20T17:59:31.165Z,17.05
2019-03-20T18:02:00.139Z,17.92
2019-03-20T18:04:29.091Z,21.65
2019-03-20T18:06:59.705Z,19.98
2019-03-20T18:09:31.331Z,18.95
2019-03-20T18:12:00.299Z,22.62
2019-03-20T18:14:29.443Z,18.30
2019-03-20T18:16:58.394Z,21.30
2019-03-20T18:19:27.443Z,19.98
2019-03-20T18:21:59.179Z,21.05
2019-03-20T18:24:28.205Z,22.17
2019-03-20T18:27:00.303Z,21.82
2019-03-20T18:29:30.915Z,19.12
2019-03-20T18:32:00.120Z,23.80
2019-03-20T18:34:29.056Z,20.63
2019-03-20T18:36:59.934Z,18.65
2019-03-20T18:39:30.563Z,23.20
2019-03-20T18:42:01.322Z,23.42
2019-03-20T18:44:33.336Z,22.45
2019-03-20T18:47:03.572Z,21.87
2019-03-20T18:49:32.575Z,20.57
2019-03-20T18:52:01.608Z,20.12
2019-03-20T18:54:30.838Z,22.55
2019-03-20T18:57:01.447Z,20.90
2019-03-20T18:59:30.486Z,16.97
2019-03-20T19:02:04.195Z,15.75
2019-03-20T19:04:34.042Z,16.70
2019-03-20T19:07:07.610Z,14.00
2019-03-20T19:09:36.726Z,14.13
2019-03-20T19:12:08.849Z,15.70
2019-03-20T19:14:40.822Z,14.70
2019-03-20T19:17:09.905Z,14.33
2019-03-20T19:19:38.850Z,18.47
2019-03-20T19:22:16.491Z,17.77
2019-03-20T19:24:45.575Z,16.80
2019-03-20T19:27:14.553Z,17.83
2019-03-20T19:29:43.551Z,20.00
2019-03-20T19:32:17.152Z,20.12
2019-03-20T19:34:49.627Z,21.70
2019-03-20T19:37:20.970Z,22.77
2019-03-20T19:39:52.776Z,22.45
2019-03-20T19:42:22.567Z,23.85
2019-03-20T19:44:55.998Z,19.02
2019-03-20T19:47:28.690Z,22.93
2019-03-20T19:50:00.573Z,23.20
2019-03-20T19:52:30.110Z,18.70
2019-03-20T19:55:03.461Z,19.35
2019-03-20T19:57:35.531Z,20.62
2019-03-20T20:00:10.228Z,21.50
2019-03-20T20:02:39.215Z,20.70
2019-03-20T20:05:15.708Z,22.70
2019-03-20T20:07:44.801Z,19.55
2019-03-20T20:10:18.494Z,22.65
2019-03-20T20:12:47.696Z,26.82
2019-03-20T20:15:18.008Z,22.00
2019-03-20T20:17:47.359Z,25.55
2019-03-20T20:20:20.167Z,23.67
2019-03-20T20:22:52.072Z,24.77
2019-03-20T20:25:21.037Z,28.35
2019-03-20T20:27:50.039Z,25.40
2019-03-20T20:30:21.616Z,26.02
2019-03-20T20:32:50.605Z,25.90
2019-03-20T20:35:19.571Z,27.15
2019-03-20T20:37:49.211Z,23.80
2019-03-20T20:40:25.819Z,22.52
2019-03-20T20:42:54.777Z,27.77
2019-03-20T20:45:23.935Z,27.80
2019-03-20T20:47:52.900Z,26.80
2019-03-20T20:50:26.171Z,25.75
2019-03-20T20:52:55.281Z,28.57
2019-03-20T20:55:24.492Z,28.33
2019-03-20T20:57:53.539Z,34.10
2019-03-20T21:00:24.031Z,27.07
2019-03-20T21:02:54.518Z,31.65
2019-03-20T21:05:29.460Z,30.27
2019-03-20T21:07:59.832Z,35.83
2019-03-20T21:10:30.411Z,27.67
2019-03-20T21:12:59.744Z,33.70
2019-03-20T21:15:35.739Z,28.10
2019-03-20T21:18:15.056Z,32.08
2019-03-20T21:21:04.342Z,30.82
2019-03-20T21:23:40.905Z,35.80
2019-03-20T21:26:11.048Z,32.80
2019-03-20T21:28:51.971Z,36.25
2019-03-20T21:31:22.606Z,38.58
2019-03-20T21:33:57.319Z,35.78
2019-03-20T21:36:42.709Z,37.28
2019-03-20T21:39:14.876Z,37.28
2019-03-20T21:41:47.960Z,38.65
2019-03-20T21:44:35.012Z,32.08
2019-03-20T21:47:23.784Z,37.08
2019-03-20T21:49:54.378Z,38.88
2019-03-20T21:52:23.602Z,36.50
2019-03-20T21:54:56.962Z,35.73
2019-03-20T21:57:34.332Z,34.05
2019-03-20T22:00:10.715Z,39.88
2019-03-20T22:02:54.628Z,39.65
2019-03-20T22:05:32.460Z,34.90
2019-03-20T22:08:04.629Z,36.15
2019-03-20T22:10:47.134Z,33.30
2019-03-20T22:13:21.370Z,33.45
2019-03-20T22:16:05.228Z,35.95
2019-03-20T22:18:55.711Z,31.23
2019-03-20T22:21:28.862Z,34.85
2019-03-20T22:23:59.382Z,42.05
2019-03-20T22:26:32.841Z,35.28
2019-03-20T22:29:03.371Z,37.42
2019-03-20T22:31:38.732Z,41.83
2019-03-20T22:34:22.947Z,42.10
2019-03-20T22:36:54.017Z,44.15
2019-03-20T22:39:30.557Z,48.35
2019-03-20T22:42:01.345Z,48.33
2019-03-20T22:44:34.755Z,45.95
2019-03-20T22:47:21.699Z,48.28
2019-03-20T22:49:56.690Z,44.10
2019-03-20T22:52:44.544Z,48.70
2019-03-20T22:55:35.801Z,51.15
2019-03-20T22:58:08.539Z,50.85
2019-03-20T23:00:39.134Z,51.92
2019-03-20T23:03:18.862Z,61.97
2019-03-20T23:05:49.393Z,56.18
2019-03-20T23:08:18.401Z,56.28
2019-03-20T23:10:48.755Z,54.55
2019-03-20T23:13:19.556Z,67.08
2019-03-20T23:15:54.059Z,66.97
2019-03-20T23:18:24.647Z,62.60
2019-03-20T23:20:55.646Z,60.83
2019-03-20T23:23:26.663Z,63.38
2019-03-20T23:25:56.723Z,60.70
2019-03-20T23:31:00.273Z,51.05
2019-03-20T23:33:32.409Z,71.15
2019-03-20T23:36:01.355Z,62.00
2019-03-20T23:38:30.398Z,61.13
2019-03-20T23:41:02.122Z,68.85
2019-03-20T23:43:32.387Z,65.72
2019-03-20T23:46:08.074Z,65.20
2019-03-20T23:48:41.797Z,72.70
2019-03-20T23:51:19.971Z,73.62
2019-03-20T23:53:50.212Z,70.97
2019-03-20T23:56:19.244Z,68.83
2019-03-20T23:58:48.262Z,75.03
